createdAt,value
2022-10-19T00:00:13.630Z,316.50
2022-10-19T00:01:13.726Z,298.50
2022-10-19T00:02:13.661Z,305.80
2022-10-19T00:03:13.588Z,309.10
2022-10-19T00:04:13.577Z,266.50
2022-10-19T00:05:13.634Z,240.50
2022-10-19T00:06:13.551Z,227.50
2022-10-19T00:07:13.558Z,244.70
2022-10-19T00:08:13.564Z,252.80
2022-10-19T00:09:13.549Z,243.80
2022-10-19T00:10:13.569Z,269.50
2022-10-19T00:11:13.517Z,254.50
2022-10-19T00:12:13.494Z,251.70
2022-10-19T00:13:13.479Z,280.00
2022-10-19T00:14:13.473Z,247.70
2022-10-19T00:15:13.486Z,263.90
2022-10-19T00:16:13.434Z,240.10
2022-10-19T00:17:13.427Z,234.40
2022-10-19T00:18:13.433Z,201.50
2022-10-19T00:19:13.424Z,218.10
2022-10-19T00:20:13.449Z,228.30
2022-10-19T00:21:13.405Z,277.60
2022-10-19T00:22:14.137Z,320.80
2022-10-19T00:23:13.389Z,324.00
2022-10-19T00:24:13.364Z,346.50
2022-10-19T00:25:13.388Z,320.80
2022-10-19T00:26:13.334Z,411.90
2022-10-19T00:27:13.340Z,397.80
2022-10-19T00:28:13.313Z,322.90
2022-10-19T00:29:13.348Z,393.90
2022-10-19T00:30:13.343Z,366.60
2022-10-19T00:31:13.272Z,354.40
2022-10-19T00:32:13.282Z,381.40
2022-10-19T00:33:13.258Z,385.00
2022-10-19T00:34:13.249Z,381.30
2022-10-19T00:35:13.298Z,373.80
2022-10-19T00:36:13.226Z,347.90
2022-10-19T00:37:13.216Z,396.30
2022-10-19T00:38:13.192Z,367.40
2022-10-19T00:39:13.199Z,404.70
2022-10-19T00:40:13.231Z,384.10
2022-10-19T00:41:13.177Z,393.90
2022-10-19T00:42:13.153Z,396.10
2022-10-19T00:43:13.160Z,379.40
2022-10-19T00:44:13.138Z,416.80
2022-10-19T00:45:13.153Z,424.90
2022-10-19T00:46:13.094Z,428.80
2022-10-19T00:47:13.087Z,428.00
2022-10-19T00:48:13.099Z,419.80
2022-10-19T00:49:13.088Z,407.40
2022-10-19T00:50:13.110Z,400.50
2022-10-19T00:51:13.059Z,407.90
2022-10-19T00:52:13.039Z,358.10
2022-10-19T00:53:13.062Z,390.00
2022-10-19T00:54:13.028Z,361.30
2022-10-19T00:55:13.050Z,359.60
2022-10-19T00:56:12.997Z,331.90
2022-10-19T00:57:13.000Z,349.70
2022-10-19T00:58:12.959Z,317.30
2022-10-19T00:59:13.013Z,296.10
2022-10-19T01:00:12.939Z,248.80
2022-10-19T01:01:13.007Z,273.90
2022-10-19T01:02:12.930Z,254.70
2022-10-19T01:03:12.927Z,211.30
2022-10-19T01:04:12.914Z,223.40
2022-10-19T01:05:12.953Z,247.50
2022-10-19T01:06:12.872Z,227.30
2022-10-19T01:07:12.863Z,228.80
2022-10-19T01:08:12.852Z,229.00
2022-10-19T01:09:12.858Z,259.40
2022-10-19T01:10:12.887Z,238.10
2022-10-19T01:11:12.836Z,248.30
2022-10-19T01:12:12.808Z,236.10
2022-10-19T01:13:12.803Z,253.90
2022-10-19T01:14:12.773Z,222.40
2022-10-19T01:15:12.825Z,229.20
2022-10-19T01:16:12.752Z,239.50
2022-10-19T01:17:12.749Z,240.00
2022-10-19T01:18:12.748Z,252.00
2022-10-19T01:19:12.749Z,253.40
2022-10-19T01:20:12.763Z,241.70
2022-10-19T01:21:12.722Z,226.90
2022-10-19T01:22:12.692Z,222.20
2022-10-19T01:23:12.722Z,208.60
2022-10-19T01:24:12.670Z,226.50
2022-10-19T01:25:12.712Z,231.10
2022-10-19T01:26:12.662Z,279.40
2022-10-19T01:27:12.668Z,297.10
2022-10-19T01:28:12.624Z,248.50
2022-10-19T01:29:12.712Z,220.10
2022-10-19T01:30:12.658Z,252.30
2022-10-19T01:31:12.629Z,283.60
2022-10-19T01:32:12.605Z,273.50
2022-10-19T01:33:12.584Z,200.10
2022-10-19T01:34:12.604Z,254.20
2022-10-19T01:35:12.560Z,211.90
2022-10-19T01:36:12.533Z,216.40
2022-10-19T01:37:12.539Z,226.00
2022-10-19T01:38:12.512Z,193.40
2022-10-19T01:39:12.558Z,250.90
2022-10-19T01:40:12.495Z,200.50
2022-10-19T01:41:12.498Z,205.80
2022-10-19T01:42:12.475Z,243.10
2022-10-19T01:43:12.488Z,230.40
2022-10-19T01:44:12.518Z,256.70
2022-10-19T01:45:12.438Z,273.30
2022-10-19T01:46:12.420Z,304.70
2022-10-19T01:47:12.409Z,299.00
2022-10-19T01:48:12.392Z,427.80
2022-10-19T01:49:12.447Z,334.90
2022-10-19T01:50:12.393Z,358.50
2022-10-19T01:51:12.384Z,280.50
2022-10-19T01:52:12.354Z,284.50
2022-10-19T01:53:12.363Z,306.30
2022-10-19T01:54:12.385Z,445.20
2022-10-19T01:55:12.337Z,348.20
2022-10-19T01:56:12.316Z,433.40
2022-10-19T01:57:12.315Z,422.10
2022-10-19T01:58:12.276Z,395.40
2022-10-19T01:59:12.340Z,407.40
2022-10-19T02:00:12.270Z,363.90
2022-10-19T02:01:12.322Z,295.90
2022-10-19T02:02:12.258Z,298.20
2022-10-19T02:03:12.235Z,287.60
2022-10-19T02:04:12.267Z,274.80
2022-10-19T02:05:12.216Z,267.10
2022-10-19T02:06:12.193Z,251.00
2022-10-19T02:07:12.199Z,238.40
2022-10-19T02:08:12.185Z,237.50
2022-10-19T02:09:12.212Z,238.10
2022-10-19T02:10:12.156Z,302.10
2022-10-19T02:11:12.140Z,240.90
2022-10-19T02:12:12.141Z,228.70
2022-10-19T02:13:12.115Z,222.40
2022-10-19T02:14:12.148Z,230.90
2022-10-19T02:15:12.099Z,268.10
2022-10-19T02:16:12.101Z,382.50
2022-10-19T02:17:12.075Z,300.30
2022-10-19T02:18:12.044Z,268.10
2022-10-19T02:19:12.124Z,270.70
2022-10-19T02:20:12.044Z,292.70
2022-10-19T02:21:12.028Z,418.50
2022-10-19T02:22:12.030Z,379.10
2022-10-19T02:23:12.013Z,444.80
2022-10-19T02:24:12.032Z,290.60
2022-10-19T02:25:11.984Z,408.20
2022-10-19T02:26:11.964Z,448.10
2022-10-19T02:27:11.969Z,255.70
2022-10-19T02:28:11.941Z,321.30
2022-10-19T02:29:11.978Z,284.70
2022-10-19T02:30:11.901Z,275.30
2022-10-19T02:31:11.918Z,281.70
2022-10-19T02:32:11.901Z,257.20
2022-10-19T02:33:11.892Z,346.90
2022-10-19T02:34:11.917Z,285.60
2022-10-19T02:35:11.864Z,250.50
2022-10-19T02:36:11.861Z,310.20
2022-10-19T02:37:11.832Z,242.40
2022-10-19T02:38:11.832Z,329.50
2022-10-19T02:39:11.854Z,313.70
2022-10-19T02:40:11.802Z,308.20
2022-10-19T02:41:11.796Z,370.50
2022-10-19T02:42:11.782Z,361.00
2022-10-19T02:43:11.787Z,339.60
2022-10-19T02:44:11.802Z,437.00
2022-10-19T02:45:11.749Z,276.20
2022-10-19T02:46:11.721Z,414.30
2022-10-19T02:47:11.708Z,295.20
2022-10-19T02:48:11.706Z,411.80
2022-10-19T02:49:11.859Z,296.70
2022-10-19T02:50:11.693Z,252.00
2022-10-19T02:51:11.684Z,301.30
2022-10-19T02:52:11.678Z,353.40
2022-10-19T02:53:11.646Z,275.50
2022-10-19T02:54:11.680Z,403.60
2022-10-19T02:55:11.643Z,405.50
2022-10-19T02:56:11.632Z,452.00
2022-10-19T02:57:11.604Z,453.20
2022-10-19T02:58:11.614Z,433.20
2022-10-19T02:59:11.752Z,504.90
2022-10-19T03:00:11.573Z,471.60
2022-10-19T03:01:11.659Z,494.50
2022-10-19T03:02:11.552Z,459.80
2022-10-19T03:03:11.544Z,439.10
2022-10-19T03:04:11.580Z,399.60
2022-10-19T03:05:11.524Z,384.30
2022-10-19T03:06:11.513Z,381.50
2022-10-19T03:07:11.503Z,366.30
2022-10-19T03:08:11.491Z,354.30
2022-10-19T03:09:11.520Z,342.40
2022-10-19T03:10:11.471Z,369.10
2022-10-19T03:11:11.454Z,368.00
2022-10-19T03:12:11.446Z,366.80
2022-10-19T03:13:11.426Z,360.00
2022-10-19T03:14:11.602Z,360.20
2022-10-19T03:15:11.391Z,406.50
2022-10-19T03:16:11.382Z,388.50
2022-10-19T03:17:11.368Z,398.90
2022-10-19T03:18:11.366Z,428.80
2022-10-19T03:19:11.477Z,456.70
2022-10-19T03:20:11.342Z,451.80
2022-10-19T03:21:11.343Z,414.50
2022-10-19T03:22:11.326Z,442.40
2022-10-19T03:23:11.327Z,449.40
2022-10-19T03:24:11.441Z,437.00
2022-10-19T03:25:11.291Z,424.80
2022-10-19T03:26:12.348Z,443.10
2022-10-19T03:27:11.282Z,448.10
2022-10-19T03:28:11.271Z,450.80
2022-10-19T03:29:11.330Z,450.40
2022-10-19T03:30:11.269Z,379.30
2022-10-19T03:31:11.230Z,383.70
2022-10-19T03:32:11.224Z,357.20
2022-10-19T03:33:11.203Z,351.50
2022-10-19T03:34:11.240Z,347.50
2022-10-19T03:35:11.227Z,345.30
2022-10-19T03:36:11.169Z,320.80
2022-10-19T03:37:11.169Z,322.00
2022-10-19T03:38:11.149Z,307.10
2022-10-19T03:39:11.210Z,305.30
2022-10-19T03:40:11.186Z,308.90
2022-10-19T03:41:11.125Z,300.20
2022-10-19T03:42:11.108Z,308.50
2022-10-19T03:43:11.091Z,277.30
2022-10-19T03:44:11.246Z,303.80
2022-10-19T03:45:11.100Z,281.90
2022-10-19T03:46:11.075Z,293.90
2022-10-19T03:47:11.044Z,282.20
2022-10-19T03:48:11.030Z,299.10
2022-10-19T03:49:11.149Z,277.60
2022-10-19T03:50:11.092Z,300.90
2022-10-19T03:51:11.009Z,251.30
2022-10-19T03:52:10.991Z,300.30
2022-10-19T03:53:10.987Z,287.20
2022-10-19T03:54:10.970Z,283.80
2022-10-19T03:55:11.004Z,270.30
2022-10-19T03:56:10.942Z,255.90
2022-10-19T03:57:10.941Z,262.70
2022-10-19T03:58:10.937Z,230.10
2022-10-19T03:59:10.921Z,266.20
2022-10-19T04:00:10.946Z,282.40
2022-10-19T04:01:10.912Z,289.60
2022-10-19T04:02:10.889Z,253.40
2022-10-19T04:03:10.867Z,248.80
2022-10-19T04:04:10.955Z,309.40
2022-10-19T04:05:10.899Z,232.90
2022-10-19T04:06:10.850Z,228.70
2022-10-19T04:07:10.825Z,267.30
2022-10-19T04:08:10.808Z,302.50
2022-10-19T04:09:10.851Z,209.30
2022-10-19T04:10:10.787Z,229.10
2022-10-19T04:11:10.786Z,289.60
2022-10-19T04:12:10.774Z,208.00
2022-10-19T04:13:10.848Z,287.20
2022-10-19T04:14:10.766Z,225.80
2022-10-19T04:15:10.759Z,323.60
2022-10-19T04:16:10.713Z,297.10
2022-10-19T04:17:10.697Z,214.30
2022-10-19T04:18:10.694Z,252.50
2022-10-19T04:19:10.685Z,208.50
2022-10-19T04:20:10.730Z,261.90
2022-10-19T04:21:10.668Z,223.10
2022-10-19T04:22:10.675Z,206.70
2022-10-19T04:23:10.690Z,197.60
2022-10-19T04:24:10.630Z,235.20
2022-10-19T04:25:10.657Z,202.30
2022-10-19T04:26:10.618Z,215.90
2022-10-19T04:27:10.612Z,271.70
2022-10-19T04:28:10.577Z,202.70
2022-10-19T04:29:10.710Z,202.90
2022-10-19T04:30:10.601Z,273.20
2022-10-19T04:31:10.586Z,250.80
2022-10-19T04:32:10.530Z,210.80
2022-10-19T04:33:10.529Z,272.90
2022-10-19T04:34:10.655Z,235.10
2022-10-19T04:35:10.550Z,223.90
2022-10-19T04:36:10.501Z,228.40
2022-10-19T04:37:10.486Z,289.20
2022-10-19T04:38:10.477Z,231.30
2022-10-19T04:39:10.485Z,256.80
2022-10-19T04:40:14.873Z,268.90
2022-10-19T04:41:10.432Z,265.50
2022-10-19T04:42:10.446Z,268.40
2022-10-19T04:43:10.405Z,259.60
2022-10-19T04:44:10.647Z,324.70
2022-10-19T04:45:10.427Z,303.40
2022-10-19T04:46:10.369Z,278.80
2022-10-19T04:47:10.345Z,336.80
2022-10-19T04:48:10.363Z,306.40
2022-10-19T04:49:10.396Z,374.70
2022-10-19T04:50:10.399Z,295.90
2022-10-19T04:51:10.326Z,290.60
2022-10-19T04:52:10.313Z,258.20
2022-10-19T04:53:10.369Z,365.60
2022-10-19T04:54:10.311Z,369.80
2022-10-19T04:55:10.328Z,325.20
2022-10-19T04:56:10.305Z,156.30
2022-10-19T04:57:10.252Z,269.70
2022-10-19T04:58:10.261Z,349.20
2022-10-19T04:59:10.233Z,267.50
2022-10-19T05:00:10.268Z,282.30
2022-10-19T05:01:10.230Z,239.90
2022-10-19T05:02:10.190Z,161.00
2022-10-19T05:03:10.191Z,311.20
2022-10-19T05:04:10.199Z,380.80
2022-10-19T05:05:10.230Z,154.10
2022-10-19T05:06:10.145Z,224.40
2022-10-19T05:07:10.123Z,217.50
2022-10-19T05:08:10.137Z,226.70
2022-10-19T05:09:10.108Z,312.50
2022-10-19T05:10:10.143Z,326.30
2022-10-19T05:11:10.089Z,298.30
2022-10-19T05:12:10.073Z,223.50
2022-10-19T05:13:10.073Z,191.20
2022-10-19T05:14:10.061Z,298.70
2022-10-19T05:15:10.063Z,353.20
2022-10-19T05:16:10.023Z,357.10
2022-10-19T05:17:10.037Z,358.30
2022-10-19T05:18:09.998Z,313.70
2022-10-19T05:19:09.990Z,257.30
2022-10-19T05:20:10.029Z,369.10
2022-10-19T05:21:09.968Z,372.40
2022-10-19T05:22:09.964Z,177.00
2022-10-19T05:23:10.081Z,285.00
2022-10-19T05:24:09.951Z,223.00
2022-10-19T05:25:09.967Z,293.70
2022-10-19T05:26:09.916Z,351.30
2022-10-19T05:27:09.904Z,415.90
2022-10-19T05:28:09.891Z,347.40
2022-10-19T05:29:09.964Z,393.50
2022-10-19T05:30:09.930Z,169.90
2022-10-19T05:31:09.883Z,321.30
2022-10-19T05:32:09.857Z,180.20
2022-10-19T05:33:09.837Z,401.70
2022-10-19T05:34:09.857Z,415.10
2022-10-19T05:35:09.869Z,194.10
2022-10-19T05:36:09.819Z,166.10
2022-10-19T05:37:09.812Z,395.10
2022-10-19T05:38:09.775Z,408.40
2022-10-19T05:39:09.775Z,177.50
2022-10-19T05:40:09.801Z,332.70
2022-10-19T05:41:09.748Z,288.50
2022-10-19T05:42:09.740Z,283.50
2022-10-19T05:43:09.715Z,302.90
2022-10-19T05:44:09.776Z,410.60
2022-10-19T05:45:09.737Z,256.90
2022-10-19T05:46:09.685Z,157.60
2022-10-19T05:47:09.665Z,322.80
2022-10-19T05:48:09.680Z,258.10
2022-10-19T05:49:09.657Z,225.10
2022-10-19T05:50:09.688Z,403.30
2022-10-19T05:51:09.638Z,232.90
2022-10-19T05:52:09.634Z,367.00
2022-10-19T05:53:09.613Z,422.30
2022-10-19T05:54:09.682Z,364.60
2022-10-19T05:55:09.623Z,242.30
2022-10-19T05:56:09.567Z,197.10
2022-10-19T05:57:09.565Z,129.10
2022-10-19T05:58:09.567Z,435.80
2022-10-19T05:59:09.559Z,147.40
2022-10-19T06:00:09.594Z,396.70
2022-10-19T06:01:09.530Z,205.60
2022-10-19T06:02:09.586Z,377.00
2022-10-19T06:03:09.482Z,431.50
2022-10-19T06:04:09.531Z,101.20
2022-10-19T06:05:09.527Z,437.30
2022-10-19T06:06:09.470Z,420.80
2022-10-19T06:07:09.464Z,435.10
2022-10-19T06:08:09.446Z,104.00
2022-10-19T06:09:09.425Z,421.20
2022-10-19T06:10:09.468Z,114.10
2022-10-19T06:11:09.407Z,440.80
2022-10-19T06:12:09.388Z,178.50
2022-10-19T06:13:09.387Z,89.20
2022-10-19T06:14:09.361Z,455.30
2022-10-19T06:15:09.389Z,91.30
2022-10-19T06:16:09.338Z,348.80
2022-10-19T06:17:09.350Z,347.80
2022-10-19T06:18:09.335Z,253.50
2022-10-19T06:19:09.305Z,239.40
2022-10-19T06:20:09.349Z,324.30
2022-10-19T06:21:09.298Z,169.30
2022-10-19T06:22:09.291Z,103.60
2022-10-19T06:23:09.269Z,432.60
2022-10-19T06:24:09.287Z,301.40
2022-10-19T06:25:09.309Z,348.80
2022-10-19T06:26:09.260Z,95.30
2022-10-19T06:27:09.248Z,454.80
2022-10-19T06:28:09.224Z,266.80
2022-10-19T06:29:09.203Z,178.50
2022-10-19T06:30:09.244Z,92.00
2022-10-19T06:31:09.582Z,199.00
2022-10-19T06:32:09.163Z,368.80
2022-10-19T06:33:09.189Z,100.50
2022-10-19T06:34:09.225Z,173.10
2022-10-19T06:35:09.175Z,152.00
2022-10-19T06:36:09.164Z,74.30
2022-10-19T06:37:09.102Z,66.90
2022-10-19T06:38:09.102Z,345.40
2022-10-19T06:39:09.091Z,164.20
2022-10-19T06:40:09.150Z,57.60
2022-10-19T06:41:09.072Z,370.50
2022-10-19T06:42:09.043Z,392.80
2022-10-19T06:43:09.057Z,58.60
2022-10-19T06:44:09.020Z,249.70
2022-10-19T06:45:09.041Z,193.90
2022-10-19T06:46:09.013Z,55.70
2022-10-19T06:47:09.052Z,110.60
2022-10-19T06:48:08.997Z,138.40
2022-10-19T06:49:08.964Z,389.50
2022-10-19T06:50:09.031Z,168.20
2022-10-19T06:51:08.947Z,63.70
2022-10-19T06:52:08.962Z,296.20
2022-10-19T06:53:08.920Z,339.30
2022-10-19T06:54:08.943Z,63.10
2022-10-19T06:55:08.996Z,115.20
2022-10-19T06:56:08.905Z,274.20
2022-10-19T06:57:08.923Z,63.90
2022-10-19T06:58:08.871Z,166.70
2022-10-19T06:59:08.872Z,220.70
2022-10-19T07:00:08.893Z,68.10
2022-10-19T07:01:08.939Z,205.90
2022-10-19T07:02:08.825Z,89.70
2022-10-19T07:03:08.829Z,85.30
2022-10-19T07:04:08.820Z,66.80
2022-10-19T07:05:08.830Z,175.30
2022-10-19T07:06:08.787Z,80.40
2022-10-19T07:07:08.780Z,253.60
2022-10-19T07:08:08.818Z,215.10
2022-10-19T07:09:08.749Z,147.10
2022-10-19T07:10:08.855Z,80.00
2022-10-19T07:11:08.743Z,180.70
2022-10-19T07:12:08.708Z,168.50
2022-10-19T07:14:08.686Z,95.50
2022-10-19T07:15:08.710Z,81.10
2022-10-19T07:16:08.669Z,63.40
2022-10-19T07:17:08.687Z,54.30
2022-10-19T07:18:08.661Z,264.10
2022-10-19T07:19:08.648Z,189.40
2022-10-19T07:20:08.669Z,64.80
2022-10-19T07:21:08.619Z,45.70
2022-10-19T07:22:08.607Z,206.60
2022-10-19T07:23:08.599Z,102.80
2022-10-19T07:24:08.593Z,53.20
2022-10-19T07:25:08.640Z,239.00
2022-10-19T07:26:08.567Z,286.50
2022-10-19T07:27:08.567Z,63.10
2022-10-19T07:28:08.531Z,171.90
2022-10-19T07:29:08.535Z,139.90
2022-10-19T07:30:08.523Z,48.90
2022-10-19T07:31:08.547Z,47.20
2022-10-19T07:32:08.533Z,225.30
2022-10-19T07:33:08.536Z,240.30
2022-10-19T07:34:08.456Z,51.40
2022-10-19T07:35:08.447Z,219.70
2022-10-19T07:36:08.498Z,147.20
2022-10-19T07:37:08.437Z,51.50
2022-10-19T07:38:08.431Z,116.30
2022-10-19T07:39:08.458Z,317.10
2022-10-19T07:40:08.408Z,130.10
2022-10-19T07:41:08.446Z,58.50
2022-10-19T07:42:08.465Z,71.80
2022-10-19T07:43:08.351Z,312.20
2022-10-19T07:44:09.966Z,197.70
2022-10-19T07:45:08.344Z,349.40
2022-10-19T07:46:08.377Z,134.30
2022-10-19T07:47:08.327Z,78.20
2022-10-19T07:48:08.318Z,138.90
2022-10-19T07:49:08.323Z,427.50
2022-10-19T07:50:08.287Z,266.10
2022-10-19T07:51:08.325Z,302.40
2022-10-19T07:52:08.270Z,224.60
2022-10-19T07:53:08.261Z,257.10
2022-10-19T07:54:08.261Z,68.30
2022-10-19T07:55:08.241Z,68.70
2022-10-19T07:56:08.286Z,297.80
2022-10-19T07:57:08.217Z,357.70
2022-10-19T07:58:08.198Z,271.20
2022-10-19T07:59:08.186Z,275.10
2022-10-19T08:00:08.192Z,218.00
2022-10-19T08:01:08.214Z,132.50
2022-10-19T08:02:08.231Z,195.70
2022-10-19T08:05:11.509Z,128.20
2022-10-19T08:06:08.146Z,83.60
2022-10-19T08:07:08.098Z,60.30
2022-10-19T08:08:08.103Z,62.30
2022-10-19T08:09:08.125Z,58.40
2022-10-19T08:10:08.065Z,87.00
2022-10-19T08:11:08.072Z,68.00
2022-10-19T08:12:12.340Z,90.60
2022-10-19T08:13:09.026Z,71.80
2022-10-19T08:14:07.995Z,58.60
2022-10-19T08:15:08.019Z,63.10
2022-10-19T08:16:08.069Z,89.00
2022-10-19T08:17:08.001Z,118.20
2022-10-19T08:18:08.008Z,122.70
2022-10-19T08:19:07.959Z,120.40
2022-10-19T08:20:07.950Z,142.90
2022-10-19T08:21:07.987Z,99.00
2022-10-19T08:22:07.928Z,105.20
2022-10-19T08:23:07.914Z,93.80
2022-10-19T08:24:07.905Z,154.50
2022-10-19T08:25:07.887Z,151.50
2022-10-19T08:26:07.912Z,225.20
2022-10-19T08:27:07.922Z,336.10
2022-10-19T08:28:07.852Z,357.70
2022-10-19T08:29:07.853Z,416.80
2022-10-19T08:30:07.830Z,347.10
2022-10-19T08:31:07.873Z,728.90
2022-10-19T08:32:07.801Z,675.30
2022-10-19T08:33:07.782Z,999.90
2022-10-19T08:34:07.808Z,999.90
2022-10-19T08:35:10.693Z,999.90
2022-10-19T08:36:07.797Z,999.90
2022-10-19T08:37:19.729Z,999.90
2022-10-19T08:38:08.765Z,999.90
2022-10-19T08:39:07.718Z,999.90
2022-10-19T08:40:07.720Z,718.80
2022-10-19T08:41:07.738Z,999.90
2022-10-19T08:42:07.679Z,698.90
2022-10-19T08:43:07.679Z,999.90
2022-10-19T08:44:10.044Z,999.90
2022-10-19T08:45:07.669Z,999.90
2022-10-19T08:46:07.704Z,999.90
2022-10-19T08:47:07.768Z,999.90
2022-10-19T08:48:07.638Z,999.90
2022-10-19T08:49:07.638Z,999.90
2022-10-19T08:50:07.604Z,999.90
2022-10-19T08:52:17.010Z,999.90
2022-10-19T08:53:16.975Z,999.90
2022-10-19T08:54:16.986Z,999.90
2022-10-19T08:55:19.771Z,336.00
2022-10-19T08:56:26.825Z,999.90
2022-10-19T08:57:17.947Z,999.90
2022-10-19T08:58:16.927Z,999.90
2022-10-19T08:59:16.929Z,999.90
2022-10-19T09:00:16.956Z,104.60
2022-10-19T09:01:16.903Z,999.90
2022-10-19T09:02:16.898Z,999.90
2022-10-19T09:03:23.047Z,999.90
2022-10-19T09:04:17.992Z,999.90
2022-10-19T09:05:16.887Z,999.90
2022-10-19T09:06:16.841Z,999.90
2022-10-19T09:07:16.822Z,999.90
2022-10-19T09:08:17.855Z,449.40
2022-10-19T09:09:16.806Z,999.90
2022-10-19T09:10:16.838Z,999.90
2022-10-19T09:11:16.774Z,999.90
2022-10-19T09:12:16.762Z,122.30
2022-10-19T09:13:16.754Z,287.00
2022-10-19T09:14:16.749Z,312.00
2022-10-19T09:15:16.779Z,999.90
2022-10-19T09:16:16.878Z,999.90
2022-10-19T09:17:16.721Z,209.30
2022-10-19T09:18:16.706Z,527.50
2022-10-19T09:19:16.704Z,571.20
2022-10-19T09:20:16.729Z,999.90
2022-10-19T09:21:16.645Z,329.20
2022-10-19T09:22:16.675Z,999.90
2022-10-19T09:23:16.639Z,999.90
2022-10-19T09:24:16.661Z,999.90
2022-10-19T09:25:16.658Z,999.90
2022-10-19T09:26:16.608Z,999.90
2022-10-19T09:27:16.596Z,999.90
2022-10-19T09:28:16.605Z,999.90
2022-10-19T09:29:16.587Z,999.90
2022-10-19T09:30:16.631Z,999.90
2022-10-19T09:31:16.559Z,999.90
2022-10-19T09:32:16.537Z,999.90
2022-10-19T09:33:16.540Z,999.90
2022-10-19T09:34:16.521Z,999.90
2022-10-19T09:35:16.499Z,999.90
2022-10-19T09:36:22.574Z,999.90
2022-10-19T09:37:24.771Z,999.90
2022-10-19T09:38:17.476Z,999.90
2022-10-19T09:39:16.455Z,999.90
2022-10-19T09:40:16.444Z,999.90
2022-10-19T09:41:16.469Z,999.90
2022-10-19T09:42:16.447Z,999.90
2022-10-19T09:43:16.419Z,999.90
2022-10-19T09:44:16.403Z,999.90
2022-10-19T09:45:16.409Z,999.90
2022-10-19T09:46:20.142Z,999.90
2022-10-19T09:47:16.357Z,999.90
2022-10-19T09:48:16.371Z,999.90
2022-10-19T09:49:16.340Z,999.90
2022-10-19T09:50:16.342Z,999.90
2022-10-19T09:51:16.387Z,999.90
2022-10-19T09:52:16.319Z,999.90
2022-10-19T09:53:16.293Z,999.90
2022-10-19T09:54:16.293Z,999.90
2022-10-19T09:55:16.284Z,999.90
2022-10-19T09:56:16.335Z,999.90
2022-10-19T09:57:16.269Z,999.90
2022-10-19T09:58:16.245Z,999.90
2022-10-19T09:59:16.218Z,999.90
2022-10-19T10:00:16.234Z,999.90
2022-10-19T10:01:16.270Z,999.90
2022-10-19T10:02:16.217Z,999.90
2022-10-19T10:03:16.184Z,999.90
2022-10-19T10:04:16.164Z,999.90
2022-10-19T10:05:16.163Z,999.90
2022-10-19T10:06:16.201Z,999.90
2022-10-19T10:07:16.150Z,999.90
2022-10-19T10:08:16.129Z,999.90
2022-10-19T10:09:16.107Z,999.90
2022-10-19T10:10:16.099Z,999.90
2022-10-19T10:11:16.238Z,999.90
2022-10-19T10:12:16.088Z,999.90
2022-10-19T10:13:16.064Z,999.90
2022-10-19T10:14:16.066Z,999.90
2022-10-19T10:15:16.040Z,999.90
2022-10-19T10:16:16.097Z,999.90
2022-10-19T10:17:16.016Z,999.90
2022-10-19T10:18:16.002Z,999.90
2022-10-19T10:19:16.015Z,999.90
2022-10-19T10:20:16.036Z,999.90
2022-10-19T10:21:16.024Z,999.90
2022-10-19T10:22:15.956Z,999.90
2022-10-19T10:23:15.941Z,999.90
2022-10-19T10:24:15.948Z,999.90
2022-10-19T10:25:15.945Z,999.90
2022-10-19T10:26:15.958Z,999.90
2022-10-19T10:27:15.903Z,999.90
2022-10-19T10:28:15.884Z,999.90
2022-10-19T10:29:15.885Z,999.90
2022-10-19T10:30:15.920Z,999.90
2022-10-19T10:31:15.894Z,999.90
2022-10-19T10:32:15.841Z,999.90
2022-10-19T10:33:27.113Z,999.90
2022-10-19T10:34:30.259Z,999.90
2022-10-19T10:35:16.817Z,999.90
2022-10-19T10:36:15.847Z,999.90
2022-10-19T10:37:15.766Z,999.90
2022-10-19T10:38:15.757Z,999.90
2022-10-19T10:39:15.754Z,999.90
2022-10-19T10:40:17.855Z,999.90
2022-10-19T10:41:16.756Z,999.90
2022-10-19T10:42:15.728Z,999.90
2022-10-19T10:43:15.695Z,999.90
2022-10-19T10:44:15.705Z,999.90
2022-10-19T10:45:15.690Z,999.90
2022-10-19T10:46:15.733Z,999.90
2022-10-19T10:47:15.665Z,999.90
2022-10-19T10:48:15.630Z,999.90
2022-10-19T10:49:15.660Z,999.90
2022-10-19T10:50:15.659Z,999.90
2022-10-19T10:51:15.648Z,999.90
2022-10-19T10:52:15.599Z,999.90
2022-10-19T10:53:15.601Z,999.90
2022-10-19T10:54:15.614Z,999.90
2022-10-19T10:55:15.592Z,999.90
2022-10-19T10:56:15.595Z,717.80
2022-10-19T10:57:15.598Z,999.90
2022-10-19T10:58:15.551Z,245.90
2022-10-19T10:59:15.523Z,394.90
2022-10-19T11:00:15.584Z,999.90
2022-10-19T11:01:15.589Z,275.90
2022-10-19T11:02:15.566Z,879.40
2022-10-19T11:03:15.499Z,751.40
2022-10-19T11:04:15.464Z,152.90
2022-10-19T11:05:15.472Z,188.10
2022-10-19T11:06:15.529Z,145.60
2022-10-19T11:07:15.417Z,158.20
2022-10-19T11:08:15.394Z,123.90
2022-10-19T11:09:15.404Z,999.90
2022-10-19T11:10:15.460Z,186.40
2022-10-19T11:11:15.447Z,344.90
2022-10-19T11:12:15.391Z,999.90
2022-10-19T11:13:15.837Z,481.70
2022-10-19T11:14:15.350Z,298.20
2022-10-19T11:15:15.355Z,999.90
2022-10-19T11:16:15.393Z,999.90
2022-10-19T11:17:15.360Z,999.90
2022-10-19T11:18:15.305Z,999.90
2022-10-19T11:20:15.318Z,999.90
2022-10-19T11:21:15.336Z,999.90
2022-10-19T11:22:15.269Z,999.90
2022-10-19T11:23:15.255Z,999.90
2022-10-19T11:24:15.232Z,999.90
2022-10-19T11:25:15.239Z,999.90
2022-10-19T11:26:15.273Z,999.90
2022-10-19T11:27:15.249Z,999.90
2022-10-19T11:28:15.204Z,999.90
2022-10-19T11:29:15.177Z,999.90
2022-10-19T11:30:15.168Z,999.90
2022-10-19T11:31:15.211Z,999.90
2022-10-19T11:32:15.119Z,999.90
2022-10-19T11:33:15.164Z,999.90
2022-10-19T11:34:16.206Z,999.90
2022-10-19T11:35:15.111Z,999.90
2022-10-19T11:36:15.137Z,999.90
2022-10-19T11:37:15.088Z,999.90
2022-10-19T11:38:20.056Z,999.90
2022-10-19T11:39:16.043Z,999.90
2022-10-19T11:40:18.639Z,999.90
2022-10-19T11:41:18.682Z,999.90
2022-10-19T11:42:15.032Z,999.90
2022-10-19T11:43:15.085Z,999.90
2022-10-19T11:44:15.009Z,999.90
2022-10-19T11:45:14.990Z,999.90
2022-10-19T11:46:15.024Z,999.90
2022-10-19T11:47:14.985Z,999.90
2022-10-19T11:48:14.950Z,999.90
2022-10-19T11:49:14.949Z,999.90
2022-10-19T11:50:14.928Z,999.90
2022-10-19T11:51:21.681Z,999.90
2022-10-19T11:52:15.910Z,999.90
2022-10-19T11:53:14.890Z,999.90
2022-10-19T11:54:15.068Z,999.90
2022-10-19T11:55:14.884Z,999.90
2022-10-19T11:56:14.906Z,999.90
2022-10-19T11:57:14.860Z,999.90
2022-10-19T11:58:14.849Z,999.90
2022-10-19T11:59:14.886Z,999.90
2022-10-19T12:00:27.197Z,999.90
2022-10-19T12:01:15.852Z,999.90
2022-10-19T12:02:14.856Z,999.90
2022-10-19T12:03:14.790Z,999.90
2022-10-19T12:04:14.764Z,999.90
2022-10-19T12:05:14.735Z,999.90
2022-10-19T12:06:14.768Z,999.90
2022-10-19T12:07:14.728Z,999.90
2022-10-19T12:08:14.755Z,999.90
2022-10-19T12:09:14.776Z,999.90
2022-10-19T12:10:14.738Z,999.90
2022-10-19T12:11:14.691Z,999.90
2022-10-19T12:12:14.675Z,999.90
2022-10-19T12:13:14.662Z,999.90
2022-10-19T12:14:14.642Z,999.90
2022-10-19T12:15:14.690Z,999.90
2022-10-19T12:16:14.630Z,999.90
2022-10-19T12:17:14.653Z,999.90
2022-10-19T12:18:14.589Z,999.90
2022-10-19T12:19:14.593Z,999.90
2022-10-19T12:20:17.466Z,999.90
2022-10-19T12:21:15.572Z,999.90
2022-10-19T12:22:14.554Z,999.90
2022-10-19T12:23:14.561Z,999.90
2022-10-19T12:24:14.533Z,999.90
2022-10-19T12:25:14.605Z,999.90
2022-10-19T12:26:14.571Z,999.90
2022-10-19T12:27:14.482Z,999.90
2022-10-19T12:28:14.492Z,999.90
2022-10-19T12:29:14.468Z,999.90
2022-10-19T12:30:14.523Z,999.90
2022-10-19T12:31:14.467Z,999.90
2022-10-19T12:32:14.435Z,999.90
2022-10-19T12:33:14.411Z,999.90
2022-10-19T12:34:14.407Z,999.90
2022-10-19T12:35:14.483Z,999.90